RJAA/NRT METAR and TAF weather

Enter ICAO airport designator
Station Type Date Time Source
RJAA METAR 2019/02/20 23:00 UTC NOAA

RJAA 202300Z 32005KT 230V360 9999 FEW030 BKN/// 07/02 Q1017 NOSIG


Station Type Date Time Source
RJAA Decoded METAR 2019/02/20 23:00 UTC NOAA

New Tokyo Inter-National Airport, Japan (RJAA) 35-46N 140-23E 44M
Feb 20, 2019 - 06:00 PM EST / 2019.02.20 2300 UTC
Wind: from the NW (320 degrees) at 6 MPH (5 KT) (direction variable):0
Visibility: greater than 7 mile(s):0
Sky conditions: mostly cloudy
Temperature: 44 F (7 C)
Dew Point: 35 F (2 C)
Relative Humidity: 70%
Pressure (altimeter): 30.03 in. Hg (1017 hPa)
ob: RJAA 202300Z 32005KT 230V360 9999 FEW030 BKN/// 07/02 Q1017 NOSIG
cycle: 23

Station Type Date Time Source
RJAA TAF 2019/02/20 19:18 UTC NOAA

TAF
AMD RJAA 201913Z 2019/2200 34010KT 9999 FEW030


Example: see airport list